Terminal Aerodrome Forecast
Issued by NWS

Home | Current Version | Previous Version | Text Only | Print | Product List | Glossary On
Versions: 1 2 3 4 5 6 7 8 9 10 11 12 13 14 15 16 17 18 19 20 21 22 23
000
FTUS44 KOHX 051120
TAFCKV
TAF
KCKV 051120Z 0512/0612 02007KT P6SM OVC012
     FM051600 05007KT P6SM OVC020
     FM052300 08006KT 6SM -SHRA BR OVC015
     FM060200 10005KT 4SM -SHRA BR OVC007=

USA.gov is the U.S. government's official web portal to all federal, state and local government web resources and services.